sensor_id;sensor_type;location;lat;lon;timestamp;P1;durP1;ratioP1;P2;durP2;ratioP2
4011;SDS011;2020;48.682;9.024;2022-11-20T00:00:47;3.53;;;3.23;;
4011;SDS011;2020;48.682;9.024;2022-11-20T00:03:12;3.40;;;3.20;;
4011;SDS011;2020;48.682;9.024;2022-11-20T00:05:38;4.60;;;4.40;;
4011;SDS011;2020;48.682;9.024;2022-11-20T00:08:03;3.17;;;2.97;;
4011;SDS011;2020;48.682;9.024;2022-11-20T00:10:29;4.13;;;3.83;;
4011;SDS011;2020;48.682;9.024;2022-11-20T00:12:54;3.83;;;3.53;;
4011;SDS011;2020;48.682;9.024;2022-11-20T00:15:19;3.90;;;3.70;;
4011;SDS011;2020;48.682;9.024;2022-11-20T00:17:45;4.00;;;3.70;;
4011;SDS011;2020;48.682;9.024;2022-11-20T00:20:10;3.30;;;3.03;;
4011;SDS011;2020;48.682;9.024;2022-11-20T00:22:36;3.00;;;2.90;;
4011;SDS011;2020;48.682;9.024;2022-11-20T00:25:01;2.53;;;2.43;;
4011;SDS011;2020;48.682;9.024;2022-11-20T00:27:26;3.70;;;3.47;;
4011;SDS011;2020;48.682;9.024;2022-11-20T00:29:51;3.33;;;3.13;;
4011;SDS011;2020;48.682;9.024;2022-11-20T00:32:17;2.80;;;2.70;;
4011;SDS011;2020;48.682;9.024;2022-11-20T00:34:42;3.20;;;2.90;;
4011;SDS011;2020;48.682;9.024;2022-11-20T00:37:07;4.80;;;4.40;;
4011;SDS011;2020;48.682;9.024;2022-11-20T00:39:33;5.20;;;4.70;;
4011;SDS011;2020;48.682;9.024;2022-11-20T00:41:58;4.27;;;3.97;;
4011;SDS011;2020;48.682;9.024;2022-11-20T00:44:23;5.70;;;5.23;;
4011;SDS011;2020;48.682;9.024;2022-11-20T00:46:48;4.83;;;4.40;;
4011;SDS011;2020;48.682;9.024;2022-11-20T00:49:14;4.27;;;4.00;;
4011;SDS011;2020;48.682;9.024;2022-11-20T00:51:39;4.73;;;4.33;;
4011;SDS011;2020;48.682;9.024;2022-11-20T00:54:04;4.63;;;4.33;;
4011;SDS011;2020;48.682;9.024;2022-11-20T00:56:30;4.97;;;3.80;;
4011;SDS011;2020;48.682;9.024;2022-11-20T00:58:55;5.60;;;5.20;;
4011;SDS011;2020;48.682;9.024;2022-11-20T01:01:22;4.03;;;3.83;;
4011;SDS011;2020;48.682;9.024;2022-11-20T01:03:55;3.30;;;3.20;;
4011;SDS011;2020;48.682;9.024;2022-11-20T01:06:23;3.53;;;2.37;;
4011;SDS011;2020;48.682;9.024;2022-11-20T01:08:50;4.40;;;2.97;;
4011;SDS011;2020;48.682;9.024;2022-11-20T01:11:18;1.83;;;1.83;;
4011;SDS011;2020;48.682;9.024;2022-11-20T01:13:47;2.20;;;2.10;;
4011;SDS011;2020;48.682;9.024;2022-11-20T01:18:48;1.93;;;1.83;;
4011;SDS011;2020;48.682;9.024;2022-11-20T01:23:54;2.90;;;2.80;;
4011;SDS011;2020;48.682;9.024;2022-11-20T01:26:20;2.30;;;2.20;;
4011;SDS011;2020;48.682;9.024;2022-11-20T01:28:47;2.43;;;2.33;;
4011;SDS011;2020;48.682;9.024;2022-11-20T01:31:17;2.47;;;2.37;;
4011;SDS011;2020;48.682;9.024;2022-11-20T01:33:43;2.50;;;2.40;;
4011;SDS011;2020;48.682;9.024;2022-11-20T01:36:10;2.80;;;2.30;;
4011;SDS011;2020;48.682;9.024;2022-11-20T01:38:36;2.97;;;2.77;;
4011;SDS011;2020;48.682;9.024;2022-11-20T01:41:02;3.93;;;3.63;;
4011;SDS011;2020;48.682;9.024;2022-11-20T01:43:27;3.17;;;2.93;;
4011;SDS011;2020;48.682;9.024;2022-11-20T01:48:32;2.50;;;2.40;;
4011;SDS011;2020;48.682;9.024;2022-11-20T01:51:01;2.23;;;2.13;;
4011;SDS011;2020;48.682;9.024;2022-11-20T01:53:30;3.00;;;2.90;;
4011;SDS011;2020;48.682;9.024;2022-11-20T01:55:59;3.07;;;2.80;;
4011;SDS011;2020;48.682;9.024;2022-11-20T01:58:31;2.77;;;2.57;;
4011;SDS011;2020;48.682;9.024;2022-11-20T02:00:59;1.90;;;1.90;;
4011;SDS011;2020;48.682;9.024;2022-11-20T02:03:24;2.40;;;2.30;;
4011;SDS011;2020;48.682;9.024;2022-11-20T02:05:52;2.60;;;2.50;;
4011;SDS011;2020;48.682;9.024;2022-11-20T02:08:25;2.43;;;2.30;;
4011;SDS011;2020;48.682;9.024;2022-11-20T02:10:50;3.10;;;3.00;;
4011;SDS011;2020;48.682;9.024;2022-11-20T02:13:16;2.93;;;2.83;;
4011;SDS011;2020;48.682;9.024;2022-11-20T02:16:00;2.67;;;2.57;;
4011;SDS011;2020;48.682;9.024;2022-11-20T02:18:26;2.47;;;2.37;;
4011;SDS011;2020;48.682;9.024;2022-11-20T02:20:58;2.87;;;2.67;;
4011;SDS011;2020;48.682;9.024;2022-11-20T02:23:39;3.60;;;2.60;;
4011;SDS011;2020;48.682;9.024;2022-11-20T02:26:25;3.50;;;3.30;;
4011;SDS011;2020;48.682;9.024;2022-11-20T02:28:53;4.03;;;3.73;;
4011;SDS011;2020;48.682;9.024;2022-11-20T02:31:19;5.20;;;3.77;;
4011;SDS011;2020;48.682;9.024;2022-11-20T02:33:44;3.53;;;3.33;;
4011;SDS011;2020;48.682;9.024;2022-11-20T02:36:11;4.00;;;3.80;;
4011;SDS011;2020;48.682;9.024;2022-11-20T02:38:39;4.03;;;3.83;;
4011;SDS011;2020;48.682;9.024;2022-11-20T02:41:04;5.60;;;5.20;;
4011;SDS011;2020;48.682;9.024;2022-11-20T02:43:29;4.30;;;4.10;;
4011;SDS011;2020;48.682;9.024;2022-11-20T02:45:55;4.00;;;3.77;;
4011;SDS011;2020;48.682;9.024;2022-11-20T02:48:20;4.27;;;3.97;;
4011;SDS011;2020;48.682;9.024;2022-11-20T02:50:45;4.67;;;4.37;;
4011;SDS011;2020;48.682;9.024;2022-11-20T02:53:11;4.60;;;4.40;;
4011;SDS011;2020;48.682;9.024;2022-11-20T02:55:36;4.40;;;4.10;;
4011;SDS011;2020;48.682;9.024;2022-11-20T02:58:01;4.33;;;4.13;;
4011;SDS011;2020;48.682;9.024;2022-11-20T03:00:27;5.27;;;4.93;;
4011;SDS011;2020;48.682;9.024;2022-11-20T03:02:52;4.73;;;4.37;;
4011;SDS011;2020;48.682;9.024;2022-11-20T03:05:17;5.73;;;5.20;;
4011;SDS011;2020;48.682;9.024;2022-11-20T03:07:43;4.60;;;4.33;;
4011;SDS011;2020;48.682;9.024;2022-11-20T03:10:09;4.37;;;4.03;;
4011;SDS011;2020;48.682;9.024;2022-11-20T03:12:34;4.13;;;3.93;;
4011;SDS011;2020;48.682;9.024;2022-11-20T03:14:59;3.80;;;3.60;;
4011;SDS011;2020;48.682;9.024;2022-11-20T03:17:24;4.47;;;4.17;;
4011;SDS011;2020;48.682;9.024;2022-11-20T03:19:50;4.80;;;4.60;;
4011;SDS011;2020;48.682;9.024;2022-11-20T03:22:15;4.87;;;4.50;;
4011;SDS011;2020;48.682;9.024;2022-11-20T03:24:40;3.90;;;3.70;;
4011;SDS011;2020;48.682;9.024;2022-11-20T03:27:05;4.67;;;4.27;;
4011;SDS011;2020;48.682;9.024;2022-11-20T03:29:31;3.80;;;3.60;;
4011;SDS011;2020;48.682;9.024;2022-11-20T03:31:57;5.60;;;5.13;;
4011;SDS011;2020;48.682;9.024;2022-11-20T03:34:22;5.10;;;4.80;;
4011;SDS011;2020;48.682;9.024;2022-11-20T03:36:48;4.40;;;4.20;;
4011;SDS011;2020;48.682;9.024;2022-11-20T03:39:13;4.17;;;3.97;;
4011;SDS011;2020;48.682;9.024;2022-11-20T03:41:39;4.63;;;4.23;;
4011;SDS011;2020;48.682;9.024;2022-11-20T03:44:07;4.57;;;4.27;;
4011;SDS011;2020;48.682;9.024;2022-11-20T03:46:33;4.10;;;3.90;;
4011;SDS011;2020;48.682;9.024;2022-11-20T03:48:59;4.40;;;4.07;;
4011;SDS011;2020;48.682;9.024;2022-11-20T03:51:26;3.93;;;3.73;;
4011;SDS011;2020;48.682;9.024;2022-11-20T03:53:59;4.83;;;4.43;;
4011;SDS011;2020;48.682;9.024;2022-11-20T03:56:26;4.50;;;4.17;;
4011;SDS011;2020;48.682;9.024;2022-11-20T03:58:54;5.23;;;4.30;;
4011;SDS011;2020;48.682;9.024;2022-11-20T04:01:20;4.57;;;4.30;;
4011;SDS011;2020;48.682;9.024;2022-11-20T04:03:48;3.57;;;3.47;;
4011;SDS011;2020;48.682;9.024;2022-11-20T04:06:18;4.23;;;4.07;;
4011;SDS011;2020;48.682;9.024;2022-11-20T04:08:45;7.20;;;4.50;;
4011;SDS011;2020;48.682;9.024;2022-11-20T04:11:15;3.87;;;3.67;;
4011;SDS011;2020;48.682;9.024;2022-11-20T04:13:52;4.70;;;4.40;;
4011;SDS011;2020;48.682;9.024;2022-11-20T04:16:19;4.80;;;4.40;;
4011;SDS011;2020;48.682;9.024;2022-11-20T04:18:45;4.03;;;3.93;;
4011;SDS011;2020;48.682;9.024;2022-11-20T04:21:11;4.87;;;4.53;;
4011;SDS011;2020;48.682;9.024;2022-11-20T04:23:36;4.00;;;3.80;;
4011;SDS011;2020;48.682;9.024;2022-11-20T04:26:11;4.00;;;3.80;;
4011;SDS011;2020;48.682;9.024;2022-11-20T04:28:37;5.63;;;4.53;;
4011;SDS011;2020;48.682;9.024;2022-11-20T04:31:10;3.70;;;3.50;;
4011;SDS011;2020;48.682;9.024;2022-11-20T04:33:37;4.40;;;4.10;;
4011;SDS011;2020;48.682;9.024;2022-11-20T04:36:13;4.40;;;4.13;;
4011;SDS011;2020;48.682;9.024;2022-11-20T04:38:41;3.60;;;3.50;;
4011;SDS011;2020;48.682;9.024;2022-11-20T04:41:08;5.03;;;4.60;;
4011;SDS011;2020;48.682;9.024;2022-11-20T04:43:38;4.37;;;4.03;;
4011;SDS011;2020;48.682;9.024;2022-11-20T04:46:03;3.63;;;3.53;;
4011;SDS011;2020;48.682;9.024;2022-11-20T04:48:29;4.93;;;4.57;;
4011;SDS011;2020;48.682;9.024;2022-11-20T04:50:54;3.80;;;3.47;;
4011;SDS011;2020;48.682;9.024;2022-11-20T04:53:20;5.03;;;4.63;;
4011;SDS011;2020;48.682;9.024;2022-11-20T04:55:46;4.13;;;3.80;;
4011;SDS011;2020;48.682;9.024;2022-11-20T04:58:12;3.90;;;3.70;;
4011;SDS011;2020;48.682;9.024;2022-11-20T05:00:38;4.23;;;3.93;;
4011;SDS011;2020;48.682;9.024;2022-11-20T05:03:03;5.50;;;5.10;;
4011;SDS011;2020;48.682;9.024;2022-11-20T05:05:29;4.87;;;4.50;;
4011;SDS011;2020;48.682;9.024;2022-11-20T05:07:58;4.03;;;3.80;;
4011;SDS011;2020;48.682;9.024;2022-11-20T05:10:27;4.27;;;4.07;;
4011;SDS011;2020;48.682;9.024;2022-11-20T05:12:52;3.30;;;3.20;;
4011;SDS011;2020;48.682;9.024;2022-11-20T05:15:18;4.43;;;4.20;;
4011;SDS011;2020;48.682;9.024;2022-11-20T05:17:50;4.30;;;4.10;;
4011;SDS011;2020;48.682;9.024;2022-11-20T05:20:16;4.00;;;3.80;;
4011;SDS011;2020;48.682;9.024;2022-11-20T05:22:42;4.47;;;3.93;;
4011;SDS011;2020;48.682;9.024;2022-11-20T05:25:08;3.70;;;3.50;;
4011;SDS011;2020;48.682;9.024;2022-11-20T05:27:34;5.07;;;4.63;;
4011;SDS011;2020;48.682;9.024;2022-11-20T05:29:59;3.43;;;3.20;;
4011;SDS011;2020;48.682;9.024;2022-11-20T05:32:24;4.93;;;3.83;;
4011;SDS011;2020;48.682;9.024;2022-11-20T05:34:50;3.93;;;3.63;;
4011;SDS011;2020;48.682;9.024;2022-11-20T05:37:18;3.83;;;3.63;;
4011;SDS011;2020;48.682;9.024;2022-11-20T05:39:43;3.77;;;3.57;;
4011;SDS011;2020;48.682;9.024;2022-11-20T05:42:09;3.83;;;3.57;;
4011;SDS011;2020;48.682;9.024;2022-11-20T05:44:52;3.87;;;3.57;;
4011;SDS011;2020;48.682;9.024;2022-11-20T05:47:17;3.70;;;3.47;;
4011;SDS011;2020;48.682;9.024;2022-11-20T05:49:43;3.57;;;3.40;;
4011;SDS011;2020;48.682;9.024;2022-11-20T05:52:08;3.50;;;3.40;;
4011;SDS011;2020;48.682;9.024;2022-11-20T05:54:33;3.43;;;3.20;;
4011;SDS011;2020;48.682;9.024;2022-11-20T05:56:59;3.90;;;3.80;;
4011;SDS011;2020;48.682;9.024;2022-11-20T05:59:24;3.63;;;3.53;;
4011;SDS011;2020;48.682;9.024;2022-11-20T06:01:49;3.00;;;2.90;;
4011;SDS011;2020;48.682;9.024;2022-11-20T06:04:15;2.90;;;2.80;;
4011;SDS011;2020;48.682;9.024;2022-11-20T06:06:40;3.70;;;3.40;;
4011;SDS011;2020;48.682;9.024;2022-11-20T06:09:06;4.53;;;3.47;;
4011;SDS011;2020;48.682;9.024;2022-11-20T06:11:31;4.30;;;4.00;;
4011;SDS011;2020;48.682;9.024;2022-11-20T06:13:56;4.13;;;3.80;;
4011;SDS011;2020;48.682;9.024;2022-11-20T06:16:21;5.77;;;5.27;;
4011;SDS011;2020;48.682;9.024;2022-11-20T06:18:47;3.63;;;3.53;;
4011;SDS011;2020;48.682;9.024;2022-11-20T06:21:13;4.80;;;4.50;;
4011;SDS011;2020;48.682;9.024;2022-11-20T06:23:40;4.53;;;4.23;;
4011;SDS011;2020;48.682;9.024;2022-11-20T06:26:07;5.17;;;3.30;;
4011;SDS011;2020;48.682;9.024;2022-11-20T06:28:34;3.60;;;3.33;;
4011;SDS011;2020;48.682;9.024;2022-11-20T06:30:59;3.93;;;3.63;;
4011;SDS011;2020;48.682;9.024;2022-11-20T06:33:25;3.57;;;3.40;;
4011;SDS011;2020;48.682;9.024;2022-11-20T06:35:51;3.40;;;3.30;;
4011;SDS011;2020;48.682;9.024;2022-11-20T06:38:16;3.20;;;3.10;;
4011;SDS011;2020;48.682;9.024;2022-11-20T06:40:42;3.43;;;3.23;;
4011;SDS011;2020;48.682;9.024;2022-11-20T06:43:10;5.30;;;3.20;;
4011;SDS011;2020;48.682;9.024;2022-11-20T06:45:36;2.60;;;2.50;;
4011;SDS011;2020;48.682;9.024;2022-11-20T06:48:01;3.90;;;3.70;;
4011;SDS011;2020;48.682;9.024;2022-11-20T06:50:27;5.43;;;3.50;;
4011;SDS011;2020;48.682;9.024;2022-11-20T06:52:52;2.73;;;2.63;;
4011;SDS011;2020;48.682;9.024;2022-11-20T06:55:18;3.50;;;3.40;;
4011;SDS011;2020;48.682;9.024;2022-11-20T06:57:43;3.07;;;2.87;;
4011;SDS011;2020;48.682;9.024;2022-11-20T07:00:08;3.50;;;3.30;;
4011;SDS011;2020;48.682;9.024;2022-11-20T07:02:34;3.30;;;3.00;;
4011;SDS011;2020;48.682;9.024;2022-11-20T07:04:59;3.73;;;3.30;;
4011;SDS011;2020;48.682;9.024;2022-11-20T07:07:25;3.10;;;2.90;;
4011;SDS011;2020;48.682;9.024;2022-11-20T07:09:50;2.47;;;2.37;;
4011;SDS011;2020;48.682;9.024;2022-11-20T07:12:15;3.13;;;2.93;;
4011;SDS011;2020;48.682;9.024;2022-11-20T07:14:41;4.10;;;3.77;;
4011;SDS011;2020;48.682;9.024;2022-11-20T07:17:06;2.90;;;2.70;;
4011;SDS011;2020;48.682;9.024;2022-11-20T07:19:31;2.80;;;2.70;;
4011;SDS011;2020;48.682;9.024;2022-11-20T07:24:23;2.23;;;2.13;;
4011;SDS011;2020;48.682;9.024;2022-11-20T07:26:48;3.30;;;2.63;;
4011;SDS011;2020;48.682;9.024;2022-11-20T07:29:14;1.93;;;1.93;;
4011;SDS011;2020;48.682;9.024;2022-11-20T07:31:40;2.37;;;2.27;;
4011;SDS011;2020;48.682;9.024;2022-11-20T07:34:05;3.07;;;2.97;;
4011;SDS011;2020;48.682;9.024;2022-11-20T07:36:30;2.30;;;2.20;;
4011;SDS011;2020;48.682;9.024;2022-11-20T07:38:55;2.53;;;2.43;;
4011;SDS011;2020;48.682;9.024;2022-11-20T07:41:21;3.13;;;3.03;;
4011;SDS011;2020;48.682;9.024;2022-11-20T07:43:46;2.43;;;2.33;;
4011;SDS011;2020;48.682;9.024;2022-11-20T07:46:11;2.43;;;2.33;;
4011;SDS011;2020;48.682;9.024;2022-11-20T07:48:37;2.40;;;2.40;;
4011;SDS011;2020;48.682;9.024;2022-11-20T07:51:02;2.57;;;2.47;;
4011;SDS011;2020;48.682;9.024;2022-11-20T07:53:27;2.10;;;2.10;;
4011;SDS011;2020;48.682;9.024;2022-11-20T07:55:53;2.30;;;2.20;;
4011;SDS011;2020;48.682;9.024;2022-11-20T07:58:18;2.37;;;2.27;;
4011;SDS011;2020;48.682;9.024;2022-11-20T08:00:45;2.47;;;2.37;;
4011;SDS011;2020;48.682;9.024;2022-11-20T08:03:10;1.90;;;1.80;;
4011;SDS011;2020;48.682;9.024;2022-11-20T08:05:35;2.83;;;2.63;;
4011;SDS011;2020;48.682;9.024;2022-11-20T08:08:01;3.77;;;3.57;;
4011;SDS011;2020;48.682;9.024;2022-11-20T08:10:26;4.03;;;3.73;;
4011;SDS011;2020;48.682;9.024;2022-11-20T08:12:52;2.40;;;2.30;;
4011;SDS011;2020;48.682;9.024;2022-11-20T08:15:36;2.97;;;2.37;;
4011;SDS011;2020;48.682;9.024;2022-11-20T08:18:07;2.20;;;1.90;;
4011;SDS011;2020;48.682;9.024;2022-11-20T08:20:34;1.97;;;1.87;;
4011;SDS011;2020;48.682;9.024;2022-11-20T08:23:00;2.00;;;1.90;;
4011;SDS011;2020;48.682;9.024;2022-11-20T08:25:28;2.30;;;2.20;;
4011;SDS011;2020;48.682;9.024;2022-11-20T08:27:56;2.40;;;2.30;;
4011;SDS011;2020;48.682;9.024;2022-11-20T08:30:22;2.33;;;2.13;;
4011;SDS011;2020;48.682;9.024;2022-11-20T08:32:47;2.77;;;2.50;;
4011;SDS011;2020;48.682;9.024;2022-11-20T08:35:13;2.37;;;2.27;;
4011;SDS011;2020;48.682;9.024;2022-11-20T08:37:38;4.20;;;2.90;;
4011;SDS011;2020;48.682;9.024;2022-11-20T08:40:06;2.27;;;2.07;;
4011;SDS011;2020;48.682;9.024;2022-11-20T08:42:35;1.83;;;1.73;;
4011;SDS011;2020;48.682;9.024;2022-11-20T08:45:00;2.10;;;2.00;;
4011;SDS011;2020;48.682;9.024;2022-11-20T08:47:26;1.90;;;1.80;;
4011;SDS011;2020;48.682;9.024;2022-11-20T08:49:51;1.63;;;1.63;;
4011;SDS011;2020;48.682;9.024;2022-11-20T08:52:16;1.40;;;1.40;;
4011;SDS011;2020;48.682;9.024;2022-11-20T08:54:41;1.57;;;1.57;;
4011;SDS011;2020;48.682;9.024;2022-11-20T08:57:07;1.27;;;1.27;;
4011;SDS011;2020;48.682;9.024;2022-11-20T08:59:32;1.30;;;1.30;;
4011;SDS011;2020;48.682;9.024;2022-11-20T09:01:57;1.43;;;1.43;;
4011;SDS011;2020;48.682;9.024;2022-11-20T09:04:23;1.27;;;1.27;;
4011;SDS011;2020;48.682;9.024;2022-11-20T09:06:48;1.30;;;1.20;;
4011;SDS011;2020;48.682;9.024;2022-11-20T09:09:15;1.40;;;1.40;;
4011;SDS011;2020;48.682;9.024;2022-11-20T09:11:41;1.23;;;1.23;;
4011;SDS011;2020;48.682;9.024;2022-11-20T09:14:06;1.30;;;1.30;;
4011;SDS011;2020;48.682;9.024;2022-11-20T09:16:32;1.50;;;1.50;;
4011;SDS011;2020;48.682;9.024;2022-11-20T09:18:57;1.30;;;1.30;;
4011;SDS011;2020;48.682;9.024;2022-11-20T09:21:22;1.70;;;1.60;;
4011;SDS011;2020;48.682;9.024;2022-11-20T09:23:48;1.13;;;1.13;;
4011;SDS011;2020;48.682;9.024;2022-11-20T09:26:13;1.20;;;1.20;;
4011;SDS011;2020;48.682;9.024;2022-11-20T09:28:39;0.90;;;0.90;;
4011;SDS011;2020;48.682;9.024;2022-11-20T09:31:05;1.10;;;1.10;;
4011;SDS011;2020;48.682;9.024;2022-11-20T09:33:32;1.03;;;1.03;;
4011;SDS011;2020;48.682;9.024;2022-11-20T09:35:57;1.07;;;1.07;;
4011;SDS011;2020;48.682;9.024;2022-11-20T09:38:22;0.90;;;0.90;;
4011;SDS011;2020;48.682;9.024;2022-11-20T09:40:57;0.90;;;0.90;;
4011;SDS011;2020;48.682;9.024;2022-11-20T09:44:19;0.70;;;0.70;;
4011;SDS011;2020;48.682;9.024;2022-11-20T09:46:21;1.00;;;1.00;;
4011;SDS011;2020;48.682;9.024;2022-11-20T09:52:46;1.23;;;1.23;;
4011;SDS011;2020;48.682;9.024;2022-11-20T09:54:43;0.80;;;0.80;;
4011;SDS011;2020;48.682;9.024;2022-11-20T09:59:46;1.00;;;1.00;;
4011;SDS011;2020;48.682;9.024;2022-11-20T10:04:55;0.80;;;0.80;;
4011;SDS011;2020;48.682;9.024;2022-11-20T10:07:33;1.03;;;1.00;;
4011;SDS011;2020;48.682;9.024;2022-11-20T10:10:05;1.57;;;1.37;;
4011;SDS011;2020;48.682;9.024;2022-11-20T10:12:53;1.10;;;0.93;;
4011;SDS011;2020;48.682;9.024;2022-11-20T10:28:46;0.83;;;0.83;;
4011;SDS011;2020;48.682;9.024;2022-11-20T10:31:34;0.90;;;0.90;;
4011;SDS011;2020;48.682;9.024;2022-11-20T10:34:06;0.80;;;0.80;;
4011;SDS011;2020;48.682;9.024;2022-11-20T10:36:57;1.00;;;1.00;;
4011;SDS011;2020;48.682;9.024;2022-11-20T10:41:58;0.80;;;0.80;;
4011;SDS011;2020;48.682;9.024;2022-11-20T10:44:28;1.57;;;1.17;;
4011;SDS011;2020;48.682;9.024;2022-11-20T10:47:16;1.10;;;0.87;;
4011;SDS011;2020;48.682;9.024;2022-11-20T10:49:44;1.43;;;1.43;;
4011;SDS011;2020;48.682;9.024;2022-11-20T11:00:35;1.17;;;1.17;;
4011;SDS011;2020;48.682;9.024;2022-11-20T11:03:00;1.60;;;1.60;;
4011;SDS011;2020;48.682;9.024;2022-11-20T11:05:44;1.33;;;1.33;;
4011;SDS011;2020;48.682;9.024;2022-11-20T11:08:17;1.30;;;1.30;;
4011;SDS011;2020;48.682;9.024;2022-11-20T11:13:20;1.27;;;1.27;;
4011;SDS011;2020;48.682;9.024;2022-11-20T11:15:47;1.40;;;1.40;;
4011;SDS011;2020;48.682;9.024;2022-11-20T11:18:22;1.30;;;1.30;;
4011;SDS011;2020;48.682;9.024;2022-11-20T11:20:52;2.40;;;1.60;;
4011;SDS011;2020;48.682;9.024;2022-11-20T11:23:32;1.83;;;1.10;;
4011;SDS011;2020;48.682;9.024;2022-11-20T11:25:58;2.00;;;1.27;;
4011;SDS011;2020;48.682;9.024;2022-11-20T11:28:25;1.30;;;1.30;;
4011;SDS011;2020;48.682;9.024;2022-11-20T11:30:52;2.00;;;1.90;;
4011;SDS011;2020;48.682;9.024;2022-11-20T11:33:22;1.87;;;1.83;;
4011;SDS011;2020;48.682;9.024;2022-11-20T11:35:59;1.30;;;1.30;;
4011;SDS011;2020;48.682;9.024;2022-11-20T11:38:30;2.53;;;2.40;;
4011;SDS011;2020;48.682;9.024;2022-11-20T11:41:03;2.10;;;2.00;;
4011;SDS011;2020;48.682;9.024;2022-11-20T11:43:31;1.47;;;1.37;;
4011;SDS011;2020;48.682;9.024;2022-11-20T11:48:55;1.27;;;1.27;;
4011;SDS011;2020;48.682;9.024;2022-11-20T11:51:22;1.17;;;1.17;;
4011;SDS011;2020;48.682;9.024;2022-11-20T11:53:48;2.30;;;1.20;;
4011;SDS011;2020;48.682;9.024;2022-11-20T11:56:14;1.33;;;1.10;;
4011;SDS011;2020;48.682;9.024;2022-11-20T12:04:03;0.90;;;0.90;;
4011;SDS011;2020;48.682;9.024;2022-11-20T12:06:39;6.10;;;1.40;;
4011;SDS011;2020;48.682;9.024;2022-11-20T12:09:09;0.80;;;0.80;;
4011;SDS011;2020;48.682;9.024;2022-11-20T12:14:21;0.83;;;0.83;;
4011;SDS011;2020;48.682;9.024;2022-11-20T12:16:56;1.67;;;0.80;;
4011;SDS011;2020;48.682;9.024;2022-11-20T12:19:29;0.80;;;0.70;;
4011;SDS011;2020;48.682;9.024;2022-11-20T12:22:15;1.00;;;0.97;;
4011;SDS011;2020;48.682;9.024;2022-11-20T12:24:59;1.03;;;1.00;;
4011;SDS011;2020;48.682;9.024;2022-11-20T12:30:17;2.87;;;1.60;;
4011;SDS011;2020;48.682;9.024;2022-11-20T12:38:20;1.07;;;1.07;;
4011;SDS011;2020;48.682;9.024;2022-11-20T12:47:51;1.50;;;1.50;;
4011;SDS011;2020;48.682;9.024;2022-11-20T12:53:27;0.70;;;0.70;;
4011;SDS011;2020;48.682;9.024;2022-11-20T13:07:08;1.03;;;0.93;;
4011;SDS011;2020;48.682;9.024;2022-11-20T13:09:39;0.90;;;0.70;;
4011;SDS011;2020;48.682;9.024;2022-11-20T13:12:10;0.70;;;0.70;;
4011;SDS011;2020;48.682;9.024;2022-11-20T13:17:43;0.73;;;0.70;;
4011;SDS011;2020;48.682;9.024;2022-11-20T13:20:16;2.00;;;0.70;;
4011;SDS011;2020;48.682;9.024;2022-11-20T13:22:44;0.77;;;0.77;;
4011;SDS011;2020;48.682;9.024;2022-11-20T13:25:24;0.90;;;0.90;;
4011;SDS011;2020;48.682;9.024;2022-11-20T13:27:51;0.60;;;0.60;;
4011;SDS011;2020;48.682;9.024;2022-11-20T13:30:21;1.80;;;0.80;;
4011;SDS011;2020;48.682;9.024;2022-11-20T13:32:52;0.93;;;0.93;;
4011;SDS011;2020;48.682;9.024;2022-11-20T13:35:32;2.00;;;0.80;;
4011;SDS011;2020;48.682;9.024;2022-11-20T13:38:00;0.80;;;0.80;;
4011;SDS011;2020;48.682;9.024;2022-11-20T13:40:36;1.73;;;1.63;;
4011;SDS011;2020;48.682;9.024;2022-11-20T13:43:46;1.10;;;1.10;;
4011;SDS011;2020;48.682;9.024;2022-11-20T13:45:57;2.23;;;0.80;;
4011;SDS011;2020;48.682;9.024;2022-11-20T13:48:25;1.67;;;0.70;;
4011;SDS011;2020;48.682;9.024;2022-11-20T13:50:57;0.90;;;0.90;;
4011;SDS011;2020;48.682;9.024;2022-11-20T13:58:56;1.27;;;0.80;;
4011;SDS011;2020;48.682;9.024;2022-11-20T14:01:28;2.83;;;0.93;;
4011;SDS011;2020;48.682;9.024;2022-11-20T14:03:56;0.70;;;0.70;;
4011;SDS011;2020;48.682;9.024;2022-11-20T14:06:25;0.70;;;0.70;;
4011;SDS011;2020;48.682;9.024;2022-11-20T14:08:52;0.90;;;0.90;;
4011;SDS011;2020;48.682;9.024;2022-11-20T14:11:19;2.37;;;1.30;;
4011;SDS011;2020;48.682;9.024;2022-11-20T14:14:32;0.80;;;0.80;;
4011;SDS011;2020;48.682;9.024;2022-11-20T14:16:41;1.73;;;1.30;;
4011;SDS011;2020;48.682;9.024;2022-11-20T14:21:47;2.40;;;1.50;;
4011;SDS011;2020;48.682;9.024;2022-11-20T14:24:13;1.50;;;1.40;;
4011;SDS011;2020;48.682;9.024;2022-11-20T14:26:43;0.90;;;0.90;;
4011;SDS011;2020;48.682;9.024;2022-11-20T14:29:12;0.80;;;0.80;;
4011;SDS011;2020;48.682;9.024;2022-11-20T14:31:39;1.97;;;1.70;;
4011;SDS011;2020;48.682;9.024;2022-11-20T14:34:10;2.97;;;2.07;;
4011;SDS011;2020;48.682;9.024;2022-11-20T14:36:40;1.10;;;1.00;;
4011;SDS011;2020;48.682;9.024;2022-11-20T14:39:21;1.20;;;1.13;;
4011;SDS011;2020;48.682;9.024;2022-11-20T14:41:51;1.67;;;1.57;;
4011;SDS011;2020;48.682;9.024;2022-11-20T14:44:17;5.43;;;1.60;;
4011;SDS011;2020;48.682;9.024;2022-11-20T14:46:44;1.10;;;1.10;;
4011;SDS011;2020;48.682;9.024;2022-11-20T14:49:10;1.00;;;1.00;;
4011;SDS011;2020;48.682;9.024;2022-11-20T14:51:37;0.80;;;0.80;;
4011;SDS011;2020;48.682;9.024;2022-11-20T14:54:16;2.10;;;1.40;;
4011;SDS011;2020;48.682;9.024;2022-11-20T14:56:53;0.93;;;0.93;;
4011;SDS011;2020;48.682;9.024;2022-11-20T14:59:26;2.20;;;1.10;;
4011;SDS011;2020;48.682;9.024;2022-11-20T15:01:54;1.20;;;0.93;;
4011;SDS011;2020;48.682;9.024;2022-11-20T15:04:25;1.33;;;1.23;;
4011;SDS011;2020;48.682;9.024;2022-11-20T15:06:53;2.50;;;1.73;;
4011;SDS011;2020;48.682;9.024;2022-11-20T15:09:20;2.60;;;1.20;;
4011;SDS011;2020;48.682;9.024;2022-11-20T15:11:55;1.10;;;1.10;;
4011;SDS011;2020;48.682;9.024;2022-11-20T15:14:23;1.00;;;1.00;;
4011;SDS011;2020;48.682;9.024;2022-11-20T15:16:51;0.80;;;0.80;;
4011;SDS011;2020;48.682;9.024;2022-11-20T15:19:18;1.27;;;1.27;;
4011;SDS011;2020;48.682;9.024;2022-11-20T15:21:45;1.80;;;0.90;;
4011;SDS011;2020;48.682;9.024;2022-11-20T15:24:10;1.47;;;1.23;;
4011;SDS011;2020;48.682;9.024;2022-11-20T15:26:36;1.60;;;1.17;;
4011;SDS011;2020;48.682;9.024;2022-11-20T15:29:04;1.70;;;1.70;;
4011;SDS011;2020;48.682;9.024;2022-11-20T15:31:32;2.17;;;2.07;;
4011;SDS011;2020;48.682;9.024;2022-11-20T15:33:57;0.97;;;0.97;;
4011;SDS011;2020;48.682;9.024;2022-11-20T15:36:22;1.23;;;1.23;;
4011;SDS011;2020;48.682;9.024;2022-11-20T15:38:48;2.73;;;2.03;;
4011;SDS011;2020;48.682;9.024;2022-11-20T15:41:13;1.20;;;1.20;;
4011;SDS011;2020;48.682;9.024;2022-11-20T15:43:38;1.30;;;1.30;;
4011;SDS011;2020;48.682;9.024;2022-11-20T15:46:05;1.77;;;1.67;;
4011;SDS011;2020;48.682;9.024;2022-11-20T15:48:38;1.30;;;1.30;;
4011;SDS011;2020;48.682;9.024;2022-11-20T15:53:40;1.60;;;1.60;;
4011;SDS011;2020;48.682;9.024;2022-11-20T15:56:09;8.10;;;3.80;;
4011;SDS011;2020;48.682;9.024;2022-11-20T15:58:36;2.90;;;2.70;;
4011;SDS011;2020;48.682;9.024;2022-11-20T16:01:02;2.97;;;2.77;;
4011;SDS011;2020;48.682;9.024;2022-11-20T16:03:27;2.30;;;2.20;;
4011;SDS011;2020;48.682;9.024;2022-11-20T16:05:52;2.70;;;2.50;;
4011;SDS011;2020;48.682;9.024;2022-11-20T16:08:18;4.00;;;2.80;;
4011;SDS011;2020;48.682;9.024;2022-11-20T16:10:43;2.33;;;2.33;;
4011;SDS011;2020;48.682;9.024;2022-11-20T16:13:12;2.53;;;2.53;;
4011;SDS011;2020;48.682;9.024;2022-11-20T16:15:58;4.97;;;4.67;;
4011;SDS011;2020;48.682;9.024;2022-11-20T16:18:26;2.80;;;2.70;;
4011;SDS011;2020;48.682;9.024;2022-11-20T16:20:52;1.50;;;1.50;;
4011;SDS011;2020;48.682;9.024;2022-11-20T16:23:18;2.00;;;1.70;;
4011;SDS011;2020;48.682;9.024;2022-11-20T16:25:45;2.23;;;2.03;;
4011;SDS011;2020;48.682;9.024;2022-11-20T16:28:10;2.10;;;2.00;;
4011;SDS011;2020;48.682;9.024;2022-11-20T16:30:36;1.20;;;1.20;;
4011;SDS011;2020;48.682;9.024;2022-11-20T16:33:02;1.77;;;1.67;;
4011;SDS011;2020;48.682;9.024;2022-11-20T16:35:31;4.03;;;3.30;;
4011;SDS011;2020;48.682;9.024;2022-11-20T16:37:57;2.57;;;2.47;;
4011;SDS011;2020;48.682;9.024;2022-11-20T16:40:23;2.20;;;2.10;;
4011;SDS011;2020;48.682;9.024;2022-11-20T16:42:49;8.83;;;6.77;;
4011;SDS011;2020;48.682;9.024;2022-11-20T16:45:14;2.67;;;2.53;;
4011;SDS011;2020;48.682;9.024;2022-11-20T16:47:40;1.90;;;1.80;;
4011;SDS011;2020;48.682;9.024;2022-11-20T16:50:05;5.83;;;5.30;;
4011;SDS011;2020;48.682;9.024;2022-11-20T16:52:31;2.40;;;2.30;;
4011;SDS011;2020;48.682;9.024;2022-11-20T16:54:57;3.73;;;2.33;;
4011;SDS011;2020;48.682;9.024;2022-11-20T16:57:22;1.60;;;1.60;;
4011;SDS011;2020;48.682;9.024;2022-11-20T16:59:48;4.00;;;2.17;;